VAM Template | Jonatha

Virtual Airlines Manager! A new look to your va. By: Jonatha Silva




 METAR ET TAF INFORMATION
METAR FOR LFLL
ADDS - METARS form results

(0634 UTC 08 July 2020)
Data provider http://aviationweather.gov/metar/data/
 
METAR text: LFLL 080630Z 34004KT 310V030 CAVOK 18/09 Q1019 NOSIG
Conditions at: LFLL (LYON/SATOLAS , FR) observed 0630 UTC 08 July 2020
Temperature: 18.0°C (64°F)
Dewpoint: 9.0°C (48°F) [RH = 56%]
Pressure (altimeter): 30.09 inches Hg (1019.0 mb)
Winds: from the NNW (340 degrees) at 5 MPH (4 knots; 2.1 m/s)
Visibility: 6 or more miles (10+ km)
Ceiling: ceiling and visibility are OK
Clouds: unknown
Weather: no significant weather observed at this time

METAR text: LFLL 080600Z 35004KT 320V020 CAVOK 17/09 Q1019 NOSIG
Conditions at: LFLL (LYON/SATOLAS , FR) observed 0600 UTC 08 July 2020
Temperature: 17.0°C (63°F)
Dewpoint: 9.0°C (48°F) [RH = 59%]
Pressure (altimeter): 30.09 inches Hg (1019.0 mb)
Winds: from the N (350 degrees) at 5 MPH (4 knots; 2.1 m/s)
Visibility: 6 or more miles (10+ km)
Ceiling: ceiling and visibility are OK
Clouds: unknown
Weather: no significant weather observed at this time

Forecast for: LFLL (LYON/SATOLAS , FR)
Text: TAF LFLL 080500Z 0806/0912 36008KT CAVOK
Forecast period: 0600 UTC 08 July 2020 to 1200 UTC 09 July 2020
Forecast type: FROM: standard forecast or significant change
Winds: from the N (360 degrees) at 9 MPH (8 knots; 4.1 m/s)
Visibility: 6 or more miles 10+ km)
Ceiling: unknown
Clouds: missing
Weather: NSW  (no significant weather)
Text: TEMPO 0822/0906 VRB02KT
Forecast period: 2200 UTC 08 July 2020 to 0600 UTC 09 July 2020
Forecast type: TEMPORARY: The following changes expected for less than half the time period
Winds: variable direction winds at 2 MPH (2 knots; 1.0 m/s)
Visibility: missing
Ceiling: unknown
Clouds: missing
Weather: no significant weather forecast for this period

 AÉROPORT DE AÉROPORT

 INFORMATIONS DE PISTE
Piste 18L Longueur de la piste 8760 ft Largeur de la piste 148 ft
Élévation de la piste 780 ft Seuil de la piste déplacés 0 ft Runway heading 175
Piste 36R Longueur de la piste 8760 ft Largeur de la piste 148 ft
Élévation de la piste 821 ft Seuil de la piste déplacés 0 ft Runway heading 355
Piste 18R Longueur de la piste 13124 ft Largeur de la piste 148 ft
Élévation de la piste 758 ft Seuil de la piste déplacés 0 ft Runway heading 175
Piste 36L Longueur de la piste 13124 ft Largeur de la piste 148 ft
Élévation de la piste 813 ft Seuil de la piste déplacés 0 ft Runway heading 355

 AÉROPORT FRÉQUENCES
Type A/D Nom Lyon appro Féquence 136.075 MHZ
Type ATIS Nom ATIS Féquence 126.175 MHZ
Type GND Nom GND Féquence 121.825 MHZ
Type INFO Nom INFO Féquence 135.2 MHZ
Type PFLT Nom PREFLIGHT Féquence 121.7 MHZ
Type TWR Nom TWR Féquence 120.45 MHZ

 SIDA DE NAVIGATION
Type VOR-DME Nom Lyon/Saint Exupery Féquence 114750 KHZ